Time;durP1;ratioP1;P1;durP2;ratioP2;P2;SDS_P1;SDS_P2;PMS_P1;PMS_P2;Temp;Humidity;BMP_temperature;BMP_pressure;BME280_temperature;BME280_humidity;BME280_pressure;Samples;Min_cycle;Max_cycle;Signal;HPM_P1;HPM_P2
2021/10/01 00:00:32;;;;;;;11.23;8.80;;;;;;;3.97;72.37;101263.34;1753386;79;22232;-51
2021/10/01 00:02:59;;;;;;;16.73;8.73;;;;;;;3.98;72.36;101260.23;1760779;80;21114;-51
2021/10/01 00:05:26;;;;;;;15.70;9.20;;;;;;;3.98;72.33;101262.46;1765978;79;21476;-51
2021/10/01 00:07:53;;;;;;;12.27;9.03;;;;;;;3.98;72.24;101258.91;1763529;79;20996;-51
2021/10/01 00:10:21;;;;;;;14.50;10.83;;;;;;;3.96;72.19;101250.02;1761034;80;20963;-51
2021/10/01 00:12:49;;;;;;;15.30;9.43;;;;;;;3.94;72.14;101253.11;1765131;80;21553;-51
2021/10/01 00:15:15;;;;;;;13.40;9.90;;;;;;;3.91;72.18;101248.69;1762555;80;21556;-51
2021/10/01 00:17:43;;;;;;;20.63;10.23;;;;;;;3.90;72.18;101250.01;1762479;80;20864;-52
2021/10/01 00:20:11;;;;;;;17.33;10.03;;;;;;;3.85;72.22;101240.66;1762751;79;21397;-51
2021/10/01 00:22:38;;;;;;;10.57;8.67;;;;;;;3.83;72.19;101241.56;1761340;80;20868;-51
2021/10/01 00:25:07;;;;;;;17.63;8.67;;;;;;;3.80;72.18;101241.98;1761806;79;20939;-52
2021/10/01 00:27:35;;;;;;;15.10;8.40;;;;;;;3.79;72.24;101244.20;1761809;80;20905;-51
2021/10/01 00:30:03;;;;;;;15.27;9.37;;;;;;;3.80;72.26;101243.76;1765439;79;21421;-52
2021/10/01 00:32:31;;;;;;;17.40;8.50;;;;;;;3.79;72.31;101245.97;1762319;79;21260;-51
2021/10/01 00:35:00;;;;;;;16.47;9.70;;;;;;;3.81;72.34;101249.54;1762256;79;20958;-51
2021/10/01 00:37:26;;;;;;;12.23;9.27;;;;;;;3.82;72.42;101238.00;1764820;80;20860;-51
2021/10/01 00:39:53;;;;;;;18.43;10.60;;;;;;;3.84;72.40;101237.98;1760055;79;20995;-50
2021/10/01 00:42:20;;;;;;;13.30;9.23;;;;;;;3.84;72.40;101244.20;1763814;79;21090;-51
2021/10/01 00:44:49;;;;;;;17.87;10.67;;;;;;;3.84;72.43;101241.98;1763768;79;21429;-51
2021/10/01 00:47:15;;;;;;;15.07;10.37;;;;;;;3.83;72.39;101241.08;1763804;80;21433;-50
2021/10/01 00:49:42;;;;;;;14.00;9.80;;;;;;;3.80;72.41;101238.00;1761796;80;20934;-50
2021/10/01 00:52:09;;;;;;;20.93;10.73;;;;;;;3.78;72.34;101233.53;1763176;79;20967;-50
2021/10/01 00:54:36;;;;;;;18.80;10.83;;;;;;;3.75;72.37;101237.07;1760294;80;21114;-51
2021/10/01 00:57:03;;;;;;;20.00;10.77;;;;;;;3.73;72.34;101234.88;1764934;80;21058;-51
2021/10/01 00:59:30;;;;;;;20.90;11.50;;;;;;;3.71;72.36;101230.41;1763543;79;21588;-51
2021/10/01 01:01:57;;;;;;;19.30;11.17;;;;;;;3.67;72.39;101237.49;1762640;79;20920;-51
2021/10/01 01:04:23;;;;;;;18.57;10.50;;;;;;;3.65;72.45;101237.06;1759892;79;20958;-51
2021/10/01 01:07:31;;;;;;;19.67;10.73;;;;;;;3.64;72.45;101235.28;1761654;80;21754;-51
2021/10/01 01:10:15;;;;;;;14.53;9.23;;;;;;;3.63;72.42;101233.05;1723831;81;21517;-51
2021/10/01 01:13:02;;;;;;;17.27;9.73;;;;;;;3.62;72.46;101236.59;1763925;79;20988;-51
2021/10/01 01:15:32;;;;;;;18.57;11.90;;;;;;;3.63;72.53;101232.16;1765066;80;20867;-52
2021/10/01 01:18:07;;;;;;;18.13;11.07;;;;;;;3.64;72.60;101228.62;1758370;80;21112;-52
2021/10/01 01:20:48;;;;;;;20.43;12.10;;;;;;;3.64;72.61;101225.96;1761067;79;20859;-52
2021/10/01 01:23:37;;;;;;;18.20;13.33;;;;;;;3.65;72.60;101227.74;1727856;81;21838;-52
2021/10/01 01:26:40;;;;;;;23.90;13.17;;;;;;;3.67;72.60;101226.84;1764416;79;20867;-52
2021/10/01 01:29:30;;;;;;;23.30;13.50;;;;;;;3.65;72.55;101228.63;1759382;80;21141;-51
2021/10/01 01:32:09;;;;;;;21.33;12.73;;;;;;;3.63;72.53;101231.73;1747089;80;20912;-52
2021/10/01 01:34:58;;;;;;;21.83;13.57;;;;;;;3.61;72.49;101232.59;1726487;81;22280;-52
2021/10/01 01:37:46;;;;;;;25.10;14.63;;;;;;;3.58;72.53;101231.24;1763130;79;20973;-52
2021/10/01 01:40:14;;;;;;;19.97;13.40;;;;;;;3.54;72.53;101234.36;1742028;80;21082;-52
2021/10/01 01:42:42;;;;;;;17.73;12.20;;;;;;;3.51;72.55;101230.34;1775983;78;20958;-50
2021/10/01 01:45:11;;;;;;;16.50;11.50;;;;;;;3.49;72.59;101236.56;1777738;79;21038;-52
2021/10/01 01:47:39;;;;;;;16.83;11.10;;;;;;;3.49;72.61;101230.77;1743041;80;21091;-52
2021/10/01 01:50:06;;;;;;;16.97;9.60;;;;;;;3.50;72.67;101232.98;1718191;82;22294;-51
2021/10/01 01:52:35;;;;;;;15.33;9.80;;;;;;;3.51;72.68;101229.45;1688284;82;21480;-50
2021/10/01 01:55:02;;;;;;;17.13;11.40;;;;;;;3.52;72.66;101233.89;1717235;82;21000;-53
2021/10/01 01:57:29;;;;;;;20.93;10.27;;;;;;;3.54;72.73;101233.46;1719144;82;20991;-53
2021/10/01 01:59:55;;;;;;;14.33;11.10;;;;;;;3.55;72.73;101240.13;1707428;82;21114;-53
2021/10/01 02:02:24;;;;;;;22.03;11.63;;;;;;;3.57;72.68;101237.48;1703027;82;21208;-52
2021/10/01 02:04:51;;;;;;;21.60;12.33;;;;;;;3.58;72.63;101235.23;1712573;82;20975;-53
2021/10/01 02:07:17;;;;;;;18.77;11.47;;;;;;;3.58;72.62;101242.78;1713683;82;20979;-53
2021/10/01 02:09:45;;;;;;;17.20;12.40;;;;;;;3.57;72.54;101238.81;1692098;82;21087;-53
2021/10/01 02:12:11;;;;;;;22.20;14.70;;;;;;;3.55;72.51;101237.91;1694277;82;21113;-53
2021/10/01 02:14:41;;;;;;;22.03;14.87;;;;;;;3.52;72.55;101240.11;1714187;82;21389;-54
2021/10/01 02:17:08;;;;;;;25.13;14.87;;;;;;;3.50;72.44;101244.52;1713926;82;21079;-54
2021/10/01 02:19:35;;;;;;;19.30;13.60;;;;;;;3.46;72.48;101245.41;1729591;82;21063;-53
2021/10/01 02:22:03;;;;;;;18.80;12.40;;;;;;;3.42;72.57;101245.83;1732671;82;21121;-54
2021/10/01 02:24:30;;;;;;;20.27;12.63;;;;;;;3.40;72.62;101240.93;1706324;82;21103;-54
2021/10/01 02:27:03;;;;;;;14.07;10.57;;;;;;;3.41;72.62;101249.81;1718597;82;20915;-54
2021/10/01 02:29:33;;;;;;;19.47;11.37;;;;;;;3.41;72.64;101241.38;1718266;82;21354;-54
2021/10/01 02:32:05;;;;;;;20.17;10.70;;;;;;;3.41;72.74;101242.72;1690440;82;21089;-54
2021/10/01 02:34:35;;;;;;;18.23;11.10;;;;;;;3.41;72.71;101241.83;1716832;82;21779;-55
2021/10/01 02:37:05;;;;;;;16.47;11.77;;;;;;;3.41;72.66;101239.16;1718155;82;22219;-54
2021/10/01 02:39:35;;;;;;;19.27;12.60;;;;;;;3.40;72.60;101246.25;1720042;82;20960;-54
2021/10/01 02:42:03;;;;;;;18.77;12.07;;;;;;;3.38;72.62;101241.83;1717122;82;21055;-55
2021/10/01 02:44:32;;;;;;;19.17;12.23;;;;;;;3.37;72.59;101250.70;1712273;82;20932;-54
2021/10/01 02:46:59;;;;;;;20.87;13.90;;;;;;;3.34;72.52;101246.23;1765086;80;20888;-54
2021/10/01 02:49:25;;;;;;;19.37;12.97;;;;;;;3.31;72.48;101244.91;1765253;80;21070;-54
2021/10/01 02:52:04;;;;;;;19.37;13.57;;;;;;;3.29;72.53;101245.34;1761080;79;21109;-55
2021/10/01 02:54:36;;;;;;;17.87;12.47;;;;;;;3.26;72.58;101247.08;1724985;81;21487;-53
2021/10/01 02:57:19;;;;;;;18.70;12.67;;;;;;;3.22;72.56;101249.30;1746608;80;21007;-54
2021/10/01 02:59:45;;;;;;;16.97;11.13;;;;;;;3.18;72.60;101247.48;1765933;80;20910;-55
2021/10/01 03:02:13;;;;;;;15.00;9.77;;;;;;;3.15;72.69;101247.02;1722109;81;21161;-54
2021/10/01 03:04:39;;;;;;;19.87;10.17;;;;;;;3.12;72.70;101244.36;1719842;81;21065;-54
2021/10/01 03:07:05;;;;;;;10.63;9.30;;;;;;;3.11;72.80;101244.34;1758550;80;21050;-54
2021/10/01 03:09:33;;;;;;;15.07;10.17;;;;;;;3.12;72.88;101245.69;1743518;80;21160;-54
2021/10/01 03:12:01;;;;;;;16.60;10.37;;;;;;;3.13;72.87;101248.80;1760711;79;21066;-53
2021/10/01 03:14:28;;;;;;;16.10;10.70;;;;;;;3.15;72.95;101248.82;1765507;80;21123;-53
2021/10/01 03:16:55;;;;;;;16.20;11.70;;;;;;;3.16;72.98;101254.13;1763099;79;20975;-54
2021/10/01 03:19:24;;;;;;;22.07;12.70;;;;;;;3.19;72.94;101255.92;1760864;79;20975;-54
2021/10/01 03:21:53;;;;;;;21.07;12.17;;;;;;;3.20;72.88;101254.60;1747838;80;20920;-54
2021/10/01 03:24:21;;;;;;;17.33;12.13;;;;;;;3.19;72.85;101245.27;1747753;79;21046;-54
2021/10/01 03:26:48;;;;;;;17.50;12.80;;;;;;;3.18;72.82;101244.82;1727723;82;21094;-54
2021/10/01 03:29:14;;;;;;;16.13;12.37;;;;;;;3.17;72.81;101252.35;1727955;80;21417;-54
2021/10/01 03:31:41;;;;;;;21.53;13.40;;;;;;;3.13;72.84;101253.23;1766128;79;21939;-53
2021/10/01 03:34:07;;;;;;;19.43;14.23;;;;;;;3.09;72.89;101252.31;1763939;79;21380;-54
2021/10/01 03:36:35;;;;;;;19.13;13.20;;;;;;;3.06;72.89;101254.98;1763238;80;20875;-55
2021/10/01 03:39:02;;;;;;;17.13;12.17;;;;;;;3.03;72.81;101261.16;1748385;79;21069;-53
2021/10/01 03:41:28;;;;;;;23.77;12.27;;;;;;;3.01;72.76;101257.59;1765218;79;20923;-54
2021/10/01 03:43:56;;;;;;;18.63;12.13;;;;;;;2.99;72.88;101254.46;1778075;79;20867;-53
2021/10/01 03:46:22;;;;;;;21.53;14.47;;;;;;;3.01;73.00;101258.92;1779076;79;20974;-54
2021/10/01 03:48:49;;;;;;;22.70;13.40;;;;;;;3.02;73.04;101263.36;1777843;78;20950;-53
2021/10/01 03:51:17;;;;;;;24.20;17.00;;;;;;;3.03;73.07;101263.81;1758088;79;20921;-54
2021/10/01 03:53:44;;;;;;;24.07;12.93;;;;;;;3.03;73.11;101267.81;1776216;79;20855;-54
2021/10/01 03:56:16;;;;;;;19.43;12.77;;;;;;;3.06;73.10;101271.37;1779485;79;20918;-53
2021/10/01 03:58:45;;;;;;;19.37;13.00;;;;;;;3.04;73.02;101268.27;1777564;79;20967;-54
2021/10/01 04:01:12;;;;;;;18.33;13.70;;;;;;;3.05;72.98;101267.83;1778836;78;21394;-52
2021/10/01 04:03:39;;;;;;;16.73;13.33;;;;;;;3.03;72.97;101272.23;1779564;78;21790;-53
2021/10/01 04:06:06;;;;;;;20.73;14.70;;;;;;;3.02;73.01;101273.11;1739887;80;21013;-52
2021/10/01 04:08:32;;;;;;;20.43;13.93;;;;;;;3.01;73.07;101277.98;1716599;82;21488;-53
2021/10/01 04:10:59;;;;;;;22.80;14.07;;;;;;;2.99;73.12;101277.96;1714441;82;21353;-53
2021/10/01 04:13:25;;;;;;;22.80;12.77;;;;;;;2.99;73.18;101281.95;1713060;82;21051;-53
2021/10/01 04:15:52;;;;;;;19.30;12.37;;;;;;;3.01;73.18;101278.88;1721649;82;21050;-54
2021/10/01 04:18:21;;;;;;;18.17;13.07;;;;;;;3.03;73.28;101279.78;1716128;82;21007;-53
2021/10/01 04:20:48;;;;;;;19.60;12.47;;;;;;;3.06;73.43;101289.56;1719631;82;20976;-52
2021/10/01 04:23:14;;;;;;;21.07;12.80;;;;;;;3.10;73.58;101287.35;1715245;82;20947;-54
2021/10/01 04:25:59;;;;;;;24.63;13.25;;;;;;;3.16;73.74;101282.50;1728659;82;26334;-54
2021/10/01 04:28:27;;;;;;;18.93;13.63;;;;;;;3.20;73.83;101284.31;1728864;82;21530;-54
2021/10/01 04:30:56;;;;;;;22.77;14.07;;;;;;;3.25;73.92;101283.89;1723546;81;21049;-53
2021/10/01 04:33:25;;;;;;;21.57;13.93;;;;;;;3.27;73.96;101277.70;1728925;82;21006;-53
2021/10/01 04:35:53;;;;;;;20.07;13.80;;;;;;;3.30;74.02;101284.82;1730542;82;20931;-53
2021/10/01 04:38:20;;;;;;;21.80;14.80;;;;;;;3.32;74.19;101279.93;1726489;82;20929;-53
2021/10/01 04:40:48;;;;;;;23.37;14.33;;;;;;;3.36;74.33;101283.52;1727862;81;21101;-53
2021/10/01 04:43:14;;;;;;;30.10;16.27;;;;;;;3.39;74.46;101281.77;1724134;82;20947;-52
2021/10/01 04:46:01;;;;;;;19.20;14.20;;;;;;;3.43;74.57;101285.31;1710681;82;20974;-52
2021/10/01 04:48:27;;;;;;;20.80;12.83;;;;;;;3.50;74.66;101291.11;1715331;82;21027;-54
2021/10/01 04:50:54;;;;;;;20.13;13.47;;;;;;;3.58;74.96;101292.04;1723103;80;20987;-52
2021/10/01 04:53:20;;;;;;;18.33;12.17;;;;;;;3.67;75.12;101292.52;1764100;80;21023;-52
2021/10/01 04:55:46;;;;;;;16.77;12.50;;;;;;;3.75;75.22;101301.43;1762686;80;20908;-52
2021/10/01 04:58:13;;;;;;;20.37;13.23;;;;;;;3.84;75.32;101299.25;1761489;79;21125;-52
2021/10/01 05:01:01;;;;;;;21.30;13.00;;;;;;;3.91;75.43;101295.75;1757893;80;21282;-51
2021/10/01 05:03:38;;;;;;;22.53;13.97;;;;;;;3.99;75.54;101298.88;1654387;85;21177;-52
2021/10/01 05:06:22;;;;;;;24.70;13.43;;;;;;;4.07;75.67;101293.57;1761786;80;23277;-52
2021/10/01 05:08:56;;;;;;;34.10;14.83;;;;;;;4.15;75.95;101298.03;1752798;79;21050;-51
2021/10/01 05:11:26;;;;;;;28.03;14.57;;;;;;;4.24;76.18;101305.60;1709826;80;21624;-50
2021/10/01 05:14:11;;;;;;;35.13;15.27;;;;;;;4.31;76.48;101300.28;1757863;80;21030;-51
2021/10/01 05:16:56;;;;;;;29.37;13.70;;;;;;;4.41;76.85;101303.41;1761745;80;23180;-51
2021/10/01 05:19:41;;;;;;;;;;;;;;;4.57;77.29;101302.98;1760270;80;21200;-49
2021/10/01 05:22:12;;;;;;;45.93;14.33;;;;;;;4.77;77.66;101303.85;1754471;79;20205;-51
2021/10/01 05:24:38;;;;;;;46.30;14.47;;;;;;;4.97;77.87;101301.19;1756749;80;21172;-51
2021/10/01 05:27:04;;;;;;;29.17;12.17;;;;;;;5.19;78.07;101310.08;1756427;79;21774;-50
2021/10/01 05:29:31;;;;;;;23.73;12.23;;;;;;;5.42;78.18;101302.00;1763223;80;21067;-51
2021/10/01 05:31:58;;;;;;;23.20;14.73;;;;;;;5.66;78.19;101305.93;1762275;80;21568;-49
2021/10/01 05:34:25;;;;;;;24.07;13.97;;;;;;;5.86;78.13;101301.41;1757895;79;21402;-51
2021/10/01 05:36:51;;;;;;;22.97;14.90;;;;;;;6.07;78.02;101301.77;1761131;79;21014;-50
2021/10/01 05:39:18;;;;;;;27.47;16.50;;;;;;;6.25;77.85;101307.45;1760793;80;21631;-52
2021/10/01 05:41:44;;;;;;;24.00;14.43;;;;;;;6.41;77.71;101300.66;1759034;80;20966;-50
2021/10/01 05:44:11;;;;;;;23.13;15.67;;;;;;;6.55;77.57;101309.06;1725203;81;21992;-52
2021/10/01 05:46:42;;;;;;;24.37;16.60;;;;;;;6.67;77.46;101309.84;1760224;80;21962;-49
2021/10/01 05:49:36;;;;;;;18.53;14.67;;;;;;;6.77;77.26;101301.30;1760859;79;21055;-51
2021/10/01 05:54:51;;;;;;;22.83;12.63;;;;;;;7.01;76.86;101301.52;1709274;79;21026;-50
2021/10/01 05:57:37;;;;;;;18.90;12.50;;;;;;;7.12;76.72;101307.23;1722351;82;22130;-52
2021/10/01 06:00:06;;;;;;;22.77;11.93;;;;;;;7.29;76.65;101316.88;1713723;82;21026;-51
2021/10/01 06:02:36;;;;;;;23.47;14.90;;;;;;;7.39;76.58;101307.41;1733736;79;21323;-52
2021/10/01 06:05:03;;;;;;;27.17;15.30;;;;;;;7.52;76.44;101313.05;1758877;79;20844;-51
2021/10/01 06:07:29;;;;;;;23.20;14.27;;;;;;;7.65;76.30;101307.57;1761156;79;20954;-52
2021/10/01 06:09:56;;;;;;;23.90;15.30;;;;;;;7.77;76.14;101311.42;1765708;79;21109;-51
2021/10/01 06:12:22;;;;;;;20.00;15.23;;;;;;;7.87;75.90;101309.07;1763232;79;20900;-52
2021/10/01 06:14:49;;;;;;;20.80;15.37;;;;;;;7.96;75.69;101303.14;1763326;80;20864;-50
2021/10/01 06:17:17;;;;;;;28.27;16.00;;;;;;;8.06;75.53;101311.07;1766757;79;20900;-50
2021/10/01 06:19:45;;;;;;;20.75;15.05;;;;;;;8.15;75.51;101306.47;1761650;79;21015;-51
2021/10/01 06:22:11;;;;;;;31.57;13.53;;;;;;;8.27;75.43;101311.64;1762850;79;21107;-51
2021/10/01 06:24:39;;;;;;;25.45;13.28;;;;;;;8.39;75.25;101313.31;1765917;80;20923;-52
2021/10/01 06:27:05;;;;;;;20.72;12.30;;;;;;;8.51;75.25;101314.45;1762094;79;21055;-52
2021/10/01 06:29:33;;;;;;;18.55;13.65;;;;;;;8.68;75.13;101320.91;1725343;81;21040;-53
2021/10/01 06:32:01;;;;;;;24.75;15.60;;;;;;;8.81;74.95;101311.77;1764780;80;21485;-54
2021/10/01 06:34:27;;;;;;;22.77;15.50;;;;;;;8.98;74.98;101310.14;1763552;79;21106;-54
2021/10/01 06:36:54;;;;;;;21.60;14.93;;;;;;;9.10;74.66;101308.59;1728891;81;20891;-54
2021/10/01 06:39:20;;;;;;;21.65;15.32;;;;;;;9.16;74.35;101312.51;1763349;80;20927;-53
2021/10/01 06:41:46;;;;;;;24.02;16.32;;;;;;;9.21;74.17;101317.78;1772370;79;20907;-54
2021/10/01 06:44:23;;;;;;;19.17;12.90;;;;;;;9.26;74.01;101313.23;1767662;79;20918;-54
2021/10/01 06:46:52;;;;;;;22.58;13.88;;;;;;;9.32;73.82;101308.63;1725426;81;21132;-54
2021/10/01 06:49:34;;;;;;;20.68;13.70;;;;;;;9.40;73.44;101317.89;1724479;81;20926;-54
2021/10/01 07:23:37;;;;;;;15.23;11.18;;;;;;;10.44;70.41;101320.23;1739163;80;21281;-55
2021/10/01 08:20:46;;;;;;;7.55;6.85;;;;;;;12.37;58.49;101294.77;1726846;80;21073;-55
2021/10/01 08:23:13;;;;;;;15.40;7.47;;;;;;;12.40;57.99;101293.34;1720279;80;21632;-54
2021/10/01 08:25:39;;;;;;;8.43;5.70;;;;;;;12.45;57.91;101295.88;1719992;80;21579;-55
2021/10/01 08:28:06;;;;;;;5.58;4.30;;;;;;;12.50;57.32;101296.64;1724733;80;21026;-54
2021/10/01 08:30:36;;;;;;;7.08;4.72;;;;;;;12.54;56.84;101286.13;1723297;80;21112;-54
2021/10/01 08:33:02;;;;;;;6.42;4.00;;;;;;;12.59;56.61;101284.66;1722985;80;21602;-53
2021/10/01 08:35:29;;;;;;;11.70;5.95;;;;;;;12.64;55.43;101291.66;1720423;80;21097;-54
2021/10/01 08:37:57;;;;;;;7.45;4.17;;;;;;;12.69;55.58;101288.33;1721783;80;21097;-54
2021/10/01 08:40:24;;;;;;;7.08;4.72;;;;;;;12.78;54.95;101292.09;1726248;80;20998;-53
2021/10/01 08:42:51;;;;;;;7.35;4.83;;;;;;;12.83;53.66;101287.44;1721853;80;21045;-54
2021/10/01 08:45:20;;;;;;;4.90;4.47;;;;;;;12.84;53.77;101284.27;1721333;80;21495;-53
2021/10/01 08:47:46;;;;;;;10.25;5.35;;;;;;;12.87;53.76;101290.90;1719647;80;21357;-56
2021/10/01 08:50:16;;;;;;;9.30;4.67;;;;;;;12.89;53.73;101289.92;1725850;80;21319;-54
2021/10/01 08:52:44;;;;;;;7.70;4.28;;;;;;;12.93;53.90;101289.83;1719275;80;21608;-54
2021/10/01 08:55:10;;;;;;;3.37;3.02;;;;;;;12.97;54.13;101282.02;1720034;80;21707;-55
2021/10/01 08:57:37;;;;;;;8.38;3.42;;;;;;;13.02;53.51;101275.98;1718397;80;22257;-55
2021/10/01 09:00:08;;;;;;;5.08;3.10;;;;;;;13.09;53.09;101278.91;1706928;81;21062;-54
2021/10/01 09:02:36;;;;;;;4.55;3.62;;;;;;;13.14;53.63;101276.48;1715970;81;20880;-54
2021/10/01 09:05:04;;;;;;;5.67;4.17;;;;;;;13.21;53.16;101277.15;1714208;81;20922;-55
2021/10/01 09:07:30;;;;;;;6.72;3.10;;;;;;;13.22;52.12;101279.80;1714529;81;20899;-54
2021/10/01 09:09:58;;;;;;;3.67;2.87;;;;;;;13.22;52.12;101279.80;1708117;81;20984;-55
2021/10/01 09:12:24;;;;;;;6.85;2.80;;;;;;;13.24;52.53;101278.41;1710037;81;20923;-55
2021/10/01 09:14:54;;;;;;;5.08;3.33;;;;;;;13.28;52.06;101282.75;1713454;81;21086;-53
2021/10/01 09:17:24;;;;;;;2.95;1.75;;;;;;;13.31;51.79;101276.36;1714446;81;20874;-54
2021/10/01 09:19:50;;;;;;;3.45;2.62;;;;;;;13.37;51.32;101279.72;1711764;81;20919;-54
2021/10/01 09:22:37;;;;;;;4.92;2.02;;;;;;;13.42;50.90;101277.77;1708977;81;20946;-54
2021/10/01 09:25:14;;;;;;;2.20;1.82;;;;;;;13.47;50.32;101277.11;1714960;81;20934;-53
2021/10/01 09:27:42;;;;;;;4.12;1.80;;;;;;;13.55;48.76;101269.60;1712713;81;21455;-54
2021/10/01 09:30:09;;;;;;;2.25;1.15;;;;;;;13.55;48.76;101258.78;1693093;82;21475;-55
2021/10/01 09:32:39;;;;;;;3.52;1.22;;;;;;;13.61;48.52;101268.48;1712444;81;20963;-54
2021/10/01 09:35:11;;;;;;;3.00;1.22;;;;;;;13.68;48.42;101263.75;1704321;81;21003;-54
2021/10/01 09:37:38;;;;;;;3.17;1.10;;;;;;;13.72;47.50;101261.33;1709764;81;20995;-54
2021/10/01 09:40:06;;;;;;;1.40;1.05;;;;;;;13.84;47.56;101266.30;1709326;81;21787;-54
2021/10/01 09:42:43;;;;;;;1.30;1.20;;;;;;;13.84;47.56;101266.30;1706678;81;21058;-55
2021/10/01 09:45:11;;;;;;;1.72;1.07;;;;;;;13.89;47.03;101262.46;1703244;81;21512;-54
2021/10/01 09:47:47;;;;;;;1.52;1.05;;;;;;;13.94;46.67;101263.66;1716887;81;21462;-55
2021/10/01 09:50:27;;;;;;;4.30;1.47;;;;;;;13.95;45.86;101256.80;1703782;81;21113;-54
2021/10/01 09:52:59;;;;;;;2.72;1.35;;;;;;;13.99;45.96;101256.23;1706469;81;21153;-56
2021/10/01 09:55:35;;;;;;;2.55;1.12;;;;;;;14.01;46.25;101257.06;1710664;81;20951;-54
2021/10/01 09:58:08;;;;;;;4.35;1.75;;;;;;;14.03;45.97;101251.13;1727347;80;20993;-54
2021/10/01 10:00:43;;;;;;;4.30;1.50;;;;;;;14.08;46.29;101249.11;1731557;80;21518;-54
2021/10/01 10:03:18;;;;;;;2.05;1.10;;;;;;;14.12;46.15;101245.32;1738171;80;21081;-55
2021/10/01 10:06:04;;;;;;;3.83;1.10;;;;;;;14.13;45.47;101240.79;1717478;80;21154;-56
2021/10/01 10:08:37;;;;;;;7.87;1.17;;;;;;;14.09;45.22;101233.28;1730969;81;20930;-55
2021/10/01 10:11:10;;;;;;;7.03;1.30;;;;;;;14.10;46.32;101240.46;1732040;81;20945;-55
2021/10/01 10:13:50;;;;;;;1.65;1.02;;;;;;;14.15;45.69;101241.16;1700204;83;20977;-55
2021/10/01 10:16:27;;;;;;;3.60;0.80;;;;;;;14.16;44.94;101233.44;1667957;84;20933;-54
2021/10/01 10:19:00;;;;;;;1.30;0.78;;;;;;;14.17;45.23;101231.15;1671451;83;21205;-55
2021/10/01 10:21:28;;;;;;;2.07;0.80;;;;;;;14.19;44.62;101230.63;1685084;84;21004;-55
2021/10/01 10:23:56;;;;;;;2.25;0.90;;;;;;;14.21;44.49;101229.18;1696521;83;20890;-56
2021/10/01 10:26:24;;;;;;;6.85;0.90;;;;;;;14.24;44.88;101235.38;1677199;83;20965;-56
2021/10/01 10:28:54;;;;;;;3.72;1.10;;;;;;;14.26;44.16;101228.08;1696297;83;20874;-55
2021/10/01 10:31:26;;;;;;;4.28;1.30;;;;;;;14.24;43.75;101225.89;1682739;83;22482;-54
2021/10/01 10:33:54;;;;;;;2.58;0.90;;;;;;;14.20;43.42;101226.98;1688977;83;21076;-56
2021/10/01 10:36:44;;;;;;;2.77;0.98;;;;;;;14.15;43.50;101226.73;1674048;84;21127;-55
2021/10/01 10:39:17;;;;;;;2.62;1.00;;;;;;;14.17;43.96;101231.15;1686726;83;21135;-55
2021/10/01 10:41:52;;;;;;;11.45;1.05;;;;;;;14.22;44.25;101229.13;1681816;83;21052;-54
2021/10/01 10:44:19;;;;;;;4.40;1.00;;;;;;;14.28;43.69;101222.13;1664346;83;21405;-54
2021/10/01 10:46:46;;;;;;;3.77;1.47;;;;;;;14.32;44.43;101219.70;1619730;83;21597;-56
2021/10/01 10:49:25;;;;;;;5.00;1.20;;;;;;;14.38;44.47;101211.78;1691796;83;21609;-56
2021/10/01 10:52:15;;;;;;;4.33;1.00;;;;;;;14.44;44.26;101216.13;1679660;83;20927;-54
2021/10/01 10:54:51;;;;;;;1.10;0.82;;;;;;;14.46;44.07;101215.09;1675576;83;20962;-54
2021/10/01 10:57:28;;;;;;;1.65;0.90;;;;;;;14.50;44.13;101218.09;1674184;84;21154;-56
2021/10/01 11:00:03;;;;;;;4.08;1.10;;;;;;;14.50;43.75;101212.68;1663246;85;21094;-55
2021/10/01 11:02:41;;;;;;;1.85;1.20;;;;;;;14.51;43.88;101210.86;1675880;84;21145;-54
2021/10/01 11:05:24;;;;;;;2.60;0.90;;;;;;;14.52;43.30;101211.27;1670540;84;20974;-56
2021/10/01 11:07:57;;;;;;;4.95;0.93;;;;;;;14.47;43.58;101202.42;1667658;84;26471;-54
2021/10/01 11:10:44;;;;;;;2.65;1.22;;;;;;;14.43;44.40;101204.88;1671407;84;21790;-56
2021/10/01 11:13:24;;;;;;;3.62;1.00;;;;;;;14.45;44.95;101205.70;1668667;84;21128;-55
2021/10/01 11:16:15;;;;;;;4.55;1.00;;;;;;;14.49;44.98;101196.48;1708751;82;20895;-55
2021/10/01 11:18:48;;;;;;;3.20;0.95;;;;;;;14.52;44.41;101189.13;1709402;82;21003;-55
2021/10/01 11:21:33;;;;;;;4.85;1.05;;;;;;;14.55;44.45;101182.66;1711197;82;21276;-56
2021/10/01 11:24:10;;;;;;;1.80;0.98;;;;;;;14.57;44.04;101182.14;1707484;82;22587;-54
2021/10/01 11:26:47;;;;;;;2.65;1.25;;;;;;;14.56;44.17;101180.38;1709337;82;21451;-55
2021/10/01 11:29:27;;;;;;;4.10;0.90;;;;;;;14.57;44.45;101184.84;1708147;82;21077;-55
2021/10/01 11:32:01;;;;;;;1.50;0.95;;;;;;;14.61;44.27;101185.14;1703172;82;22890;-57
2021/10/01 11:34:44;;;;;;;2.58;0.90;;;;;;;14.65;44.13;101179.98;1706548;82;21109;-55
2021/10/01 11:37:31;;;;;;;9.48;0.90;;;;;;;14.66;44.23;101182.63;1711983;82;21098;-55
2021/10/01 11:40:07;;;;;;;2.33;0.90;;;;;;;14.69;43.87;101182.52;1709882;82;21643;-55
2021/10/01 11:42:40;;;;;;;1.57;0.80;;;;;;;14.70;43.60;101173.91;1707274;81;20904;-55
2021/10/01 11:45:22;;;;;;;3.77;1.00;;;;;;;14.71;43.35;101182.45;1695965;82;21246;-55
2021/10/01 11:48:05;;;;;;;4.55;1.25;;;;;;;14.68;43.77;101169.03;1710478;82;21085;-55
2021/10/01 11:50:37;;;;;;;8.13;0.98;;;;;;;14.69;43.77;101166.26;1706471;81;21764;-56
2021/10/01 11:53:25;;;;;;;3.98;0.90;;;;;;;14.72;44.00;101163.86;1711480;82;21085;-55
2021/10/01 11:55:59;;;;;;;2.02;0.80;;;;;;;14.74;44.05;101169.64;1708704;82;21117;-56
2021/10/01 11:58:27;;;;;;;2.75;0.90;;;;;;;14.74;43.26;101160.62;1685226;83;21429;-55
2021/10/01 12:00:53;;;;;;;2.17;1.02;;;;;;;14.73;43.05;101157.50;1700475;83;21810;-55
2021/10/01 12:03:21;;;;;;;3.52;0.90;;;;;;;14.72;42.98;101153.91;1694878;83;22489;-56
2021/10/01 12:05:51;;;;;;;3.20;0.80;;;;;;;14.74;43.29;101155.20;1696234;83;20953;-56
2021/10/01 12:08:22;;;;;;;3.17;0.80;;;;;;;14.76;42.71;101147.89;1670837;84;20947;-57
2021/10/01 12:10:54;;;;;;;2.98;1.00;;;;;;;14.74;42.52;101145.24;1685653;84;20995;-55
2021/10/01 12:13:24;;;;;;;6.40;0.80;;;;;;;14.76;42.73;101146.54;1674474;83;21512;-56
2021/10/01 12:15:55;;;;;;;2.80;0.80;;;;;;;14.77;43.16;101145.59;1679174;84;21743;-55
2021/10/01 12:18:36;;;;;;;1.42;0.70;;;;;;;14.79;42.34;101142.83;1681484;84;21074;-55
2021/10/01 12:21:09;;;;;;;1.65;0.70;;;;;;;14.78;41.77;101146.48;1678854;84;21025;-56
2021/10/01 12:23:42;;;;;;;3.50;0.70;;;;;;;14.73;41.72;101142.59;1681815;84;20917;-55
2021/10/01 12:26:33;;;;;;;1.20;0.90;;;;;;;14.71;42.25;101145.87;1670206;84;20898;-55
2021/10/01 12:29:20;;;;;;;2.00;0.70;;;;;;;14.72;42.66;101140.36;1679226;83;21100;-56
2021/10/01 12:32:00;;;;;;;2.70;1.20;;;;;;;14.76;42.35;101143.83;1694615;83;20954;-56
2021/10/01 12:34:37;;;;;;;1.35;0.80;;;;;;;14.83;41.84;101139.02;1680668;83;20938;-54
2021/10/01 12:37:13;;;;;;;3.17;0.98;;;;;;;14.82;41.65;101138.13;1700476;83;21088;-56
2021/10/01 12:39:42;;;;;;;2.35;0.70;;;;;;;14.83;41.84;101135.83;1690920;83;21061;-56
2021/10/01 12:42:12;;;;;;;0.98;0.70;;;;;;;14.84;41.82;101133.53;1692068;82;21106;-56
2021/10/01 12:44:43;;;;;;;1.37;0.70;;;;;;;14.86;42.05;101129.41;1689172;82;21003;-56
2021/10/01 12:47:15;;;;;;;2.25;0.80;;;;;;;14.89;42.23;101124.70;1700459;83;20946;-55
2021/10/01 12:49:43;;;;;;;0.78;0.68;;;;;;;14.93;42.08;101127.70;1690205;83;20942;-55
2021/10/01 12:52:14;;;;;;;5.60;1.15;;;;;;;15.03;42.17;101122.28;1690167;83;21070;-56
2021/10/01 12:54:45;;;;;;;2.42;0.70;;;;;;;15.10;41.18;101123.77;1691742;83;22403;-56
2021/10/01 12:57:18;;;;;;;2.58;0.80;;;;;;;15.14;40.87;101127.23;1689351;83;21045;-56
2021/10/01 13:00:03;;;;;;;3.08;0.60;;;;;;;15.12;41.01;101124.58;1680538;83;21017;-55
2021/10/01 13:02:46;;;;;;;1.95;0.80;;;;;;;15.14;41.21;101125.88;1669585;84;21560;-57
2021/10/01 13:05:18;;;;;;;3.90;0.70;;;;;;;15.13;41.37;101127.70;1672345;84;21101;-55
2021/10/01 13:07:47;;;;;;;6.40;0.80;;;;;;;15.12;41.34;101122.34;1667561;84;21089;-56
2021/10/01 13:10:23;;;;;;;2.90;0.60;;;;;;;15.11;41.23;101123.29;1669708;84;21736;-55